Startpagina
METAR-TAF:

METAR-TAF

Vliegvelden :

Meierwik

Glücksburg, Duitsland

breedte: 54-50N, lengte: 009-30E, hoogte: 27 m

Actueel weer

Dit bericht is 21 minuten geleden gemaakt, om 08:20 UTC
Wind 15 kt uit het zuiden met uitschieters tot 25 kt
Temperatuur 5°C
Vochtigheid 93%
Druk 1009 hPa

METAR: ETGG 200820Z AUTO 19015G25KT //// // ////// 05/04 Q1009 ///

Tijdstip: 09:41 (08:41 UTC)


TAF: ontbreekt

Waarnemingen en weersverwachtingen van meer dan 4000 vliegvelden (METAR en TAF).

De beschikbare stations zijn de gele en rode punten op de kaart.

Ga met uw muis naar het station om de naam te zien.

Klik dan om waarnemingen en weersverwachtingen te zien.

kaart wijzigen: klik op de groene knoppen met een zwart kruis om in te zoomen, op de groene knop met een streepje om uit te zoomen of op de groene pijlen voor aangrenzende kaarten.


METAR-TAF: